sensor_id;sensor_type;location;lat;lon;timestamp;temperature;humidity
22098;DHT22;11215;51.938;8.464;2023-04-03T00:01:57;7.80;56.70
22098;DHT22;11215;51.938;8.464;2023-04-03T00:04:23;7.80;56.70
22098;DHT22;11215;51.938;8.464;2023-04-03T00:06:48;7.80;56.70
22098;DHT22;11215;51.938;8.464;2023-04-03T00:09:17;7.80;56.80
22098;DHT22;11215;51.938;8.464;2023-04-03T00:11:45;7.70;56.70
22098;DHT22;11215;51.938;8.464;2023-04-03T00:14:11;7.70;56.70
22098;DHT22;11215;51.938;8.464;2023-04-03T00:16:38;7.70;56.70
22098;DHT22;11215;51.938;8.464;2023-04-03T00:19:04;7.60;56.70
22098;DHT22;11215;51.938;8.464;2023-04-03T00:21:30;7.60;56.80
22098;DHT22;11215;51.938;8.464;2023-04-03T00:23:57;7.60;56.90
22098;DHT22;11215;51.938;8.464;2023-04-03T00:26:22;7.50;56.90
22098;DHT22;11215;51.938;8.464;2023-04-03T00:28:48;7.50;57.10
22098;DHT22;11215;51.938;8.464;2023-04-03T00:31:18;7.50;57.10
22098;DHT22;11215;51.938;8.464;2023-04-03T00:33:44;7.50;57.10
22098;DHT22;11215;51.938;8.464;2023-04-03T00:36:13;7.50;57.10
22098;DHT22;11215;51.938;8.464;2023-04-03T00:38:38;7.40;57.00
22098;DHT22;11215;51.938;8.464;2023-04-03T00:41:04;7.40;57.00
22098;DHT22;11215;51.938;8.464;2023-04-03T00:43:34;7.40;57.00
22098;DHT22;11215;51.938;8.464;2023-04-03T00:45:59;7.40;56.90
22098;DHT22;11215;51.938;8.464;2023-04-03T00:48:40;7.30;57.00
22098;DHT22;11215;51.938;8.464;2023-04-03T00:51:30;7.30;57.20
22098;DHT22;11215;51.938;8.464;2023-04-03T00:53:58;7.30;57.20
22098;DHT22;11215;51.938;8.464;2023-04-03T00:56:27;7.30;57.30
22098;DHT22;11215;51.938;8.464;2023-04-03T00:59:05;7.20;57.30
22098;DHT22;11215;51.938;8.464;2023-04-03T01:01:32;7.20;57.30
22098;DHT22;11215;51.938;8.464;2023-04-03T01:04:01;7.20;57.30
22098;DHT22;11215;51.938;8.464;2023-04-03T01:06:32;7.20;57.30
22098;DHT22;11215;51.938;8.464;2023-04-03T01:08:59;7.10;57.30
22098;DHT22;11215;51.938;8.464;2023-04-03T01:11:25;7.10;57.30
22098;DHT22;11215;51.938;8.464;2023-04-03T01:13:52;7.00;57.30
22098;DHT22;11215;51.938;8.464;2023-04-03T01:16:18;7.00;57.40
22098;DHT22;11215;51.938;8.464;2023-04-03T01:18:45;7.00;57.60
22098;DHT22;11215;51.938;8.464;2023-04-03T01:26:33;6.90;57.60
22098;DHT22;11215;51.938;8.464;2023-04-03T01:29:00;6.90;57.60
22098;DHT22;11215;51.938;8.464;2023-04-03T01:31:52;6.90;57.60
22098;DHT22;11215;51.938;8.464;2023-04-03T01:34:19;6.80;57.50
22098;DHT22;11215;51.938;8.464;2023-04-03T01:36:45;6.80;57.50
22098;DHT22;11215;51.938;8.464;2023-04-03T01:39:11;6.80;57.50
22098;DHT22;11215;51.938;8.464;2023-04-03T01:41:37;6.70;57.60
22098;DHT22;11215;51.938;8.464;2023-04-03T01:44:03;6.70;57.60
22098;DHT22;11215;51.938;8.464;2023-04-03T01:46:29;6.70;57.70
22098;DHT22;11215;51.938;8.464;2023-04-03T01:48:55;6.60;57.70
22098;DHT22;11215;51.938;8.464;2023-04-03T01:51:21;6.60;57.80
22098;DHT22;11215;51.938;8.464;2023-04-03T01:53:47;6.60;57.80
22098;DHT22;11215;51.938;8.464;2023-04-03T01:56:12;6.50;57.90
22098;DHT22;11215;51.938;8.464;2023-04-03T01:58:38;6.50;58.00
22098;DHT22;11215;51.938;8.464;2023-04-03T02:01:04;6.50;58.00
22098;DHT22;11215;51.938;8.464;2023-04-03T02:03:30;6.50;58.00
22098;DHT22;11215;51.938;8.464;2023-04-03T02:05:56;6.50;58.00
22098;DHT22;11215;51.938;8.464;2023-04-03T02:08:22;6.40;58.10
22098;DHT22;11215;51.938;8.464;2023-04-03T02:10:48;6.40;58.00
22098;DHT22;11215;51.938;8.464;2023-04-03T02:13:15;6.40;58.00
22098;DHT22;11215;51.938;8.464;2023-04-03T02:15:43;6.40;58.00
22098;DHT22;11215;51.938;8.464;2023-04-03T02:18:10;6.30;58.10
22098;DHT22;11215;51.938;8.464;2023-04-03T02:20:36;6.30;58.20
22098;DHT22;11215;51.938;8.464;2023-04-03T02:23:02;6.20;58.10
22098;DHT22;11215;51.938;8.464;2023-04-03T02:25:30;6.20;58.10
22098;DHT22;11215;51.938;8.464;2023-04-03T02:27:55;6.20;58.20
22098;DHT22;11215;51.938;8.464;2023-04-03T02:30:21;6.20;58.30
22098;DHT22;11215;51.938;8.464;2023-04-03T02:32:47;6.20;58.30
22098;DHT22;11215;51.938;8.464;2023-04-03T02:35:12;6.10;58.30
22098;DHT22;11215;51.938;8.464;2023-04-03T02:37:39;6.10;58.20
22098;DHT22;11215;51.938;8.464;2023-04-03T02:40:05;6.10;58.20
22098;DHT22;11215;51.938;8.464;2023-04-03T02:42:31;6.10;58.20
22098;DHT22;11215;51.938;8.464;2023-04-03T02:44:57;6.00;58.20
22098;DHT22;11215;51.938;8.464;2023-04-03T02:47:23;6.00;58.20
22098;DHT22;11215;51.938;8.464;2023-04-03T02:49:48;6.00;58.30
22098;DHT22;11215;51.938;8.464;2023-04-03T02:52:14;5.90;58.40
22098;DHT22;11215;51.938;8.464;2023-04-03T02:54:40;5.90;58.40
22098;DHT22;11215;51.938;8.464;2023-04-03T02:57:06;5.90;58.40
22098;DHT22;11215;51.938;8.464;2023-04-03T02:59:35;5.90;58.50
22098;DHT22;11215;51.938;8.464;2023-04-03T03:02:10;5.80;58.50
22098;DHT22;11215;51.938;8.464;2023-04-03T03:04:37;5.80;58.50
22098;DHT22;11215;51.938;8.464;2023-04-03T03:07:03;5.80;58.60
22098;DHT22;11215;51.938;8.464;2023-04-03T03:09:29;5.80;58.60
22098;DHT22;11215;51.938;8.464;2023-04-03T03:11:55;5.70;58.50
22098;DHT22;11215;51.938;8.464;2023-04-03T03:14:21;5.70;58.60
22098;DHT22;11215;51.938;8.464;2023-04-03T03:16:46;5.70;58.70
22098;DHT22;11215;51.938;8.464;2023-04-03T03:19:12;5.70;58.70
22098;DHT22;11215;51.938;8.464;2023-04-03T03:21:41;5.60;59.30
22098;DHT22;11215;51.938;8.464;2023-04-03T03:24:06;5.60;58.70
22098;DHT22;11215;51.938;8.464;2023-04-03T03:26:32;5.60;58.70
22098;DHT22;11215;51.938;8.464;2023-04-03T03:28:58;5.60;58.70
22098;DHT22;11215;51.938;8.464;2023-04-03T03:31:23;5.60;58.70
22098;DHT22;11215;51.938;8.464;2023-04-03T03:33:49;5.60;58.70
22098;DHT22;11215;51.938;8.464;2023-04-03T03:36:15;5.60;58.70
22098;DHT22;11215;51.938;8.464;2023-04-03T03:38:40;5.50;58.70
22098;DHT22;11215;51.938;8.464;2023-04-03T03:41:06;5.50;58.70
22098;DHT22;11215;51.938;8.464;2023-04-03T03:43:32;5.50;58.80
22098;DHT22;11215;51.938;8.464;2023-04-03T03:45:57;5.50;58.90
22098;DHT22;11215;51.938;8.464;2023-04-03T03:48:23;5.40;58.80
22098;DHT22;11215;51.938;8.464;2023-04-03T03:50:50;5.40;58.80
22098;DHT22;11215;51.938;8.464;2023-04-03T03:53:15;5.40;58.90
22098;DHT22;11215;51.938;8.464;2023-04-03T03:55:41;5.40;58.90
22098;DHT22;11215;51.938;8.464;2023-04-03T03:58:07;5.40;59.00
22098;DHT22;11215;51.938;8.464;2023-04-03T04:00:32;5.40;59.00
22098;DHT22;11215;51.938;8.464;2023-04-03T04:02:58;5.30;59.00
22098;DHT22;11215;51.938;8.464;2023-04-03T04:05:24;5.30;59.00
22098;DHT22;11215;51.938;8.464;2023-04-03T04:07:49;5.30;59.00
22098;DHT22;11215;51.938;8.464;2023-04-03T04:10:16;5.30;59.00
22098;DHT22;11215;51.938;8.464;2023-04-03T04:12:41;5.30;59.00
22098;DHT22;11215;51.938;8.464;2023-04-03T04:15:08;5.30;59.10
22098;DHT22;11215;51.938;8.464;2023-04-03T04:17:34;5.30;59.10
22098;DHT22;11215;51.938;8.464;2023-04-03T04:20:01;5.20;59.10
22098;DHT22;11215;51.938;8.464;2023-04-03T04:22:26;5.20;59.10
22098;DHT22;11215;51.938;8.464;2023-04-03T04:24:52;5.20;59.20
22098;DHT22;11215;51.938;8.464;2023-04-03T04:27:18;5.20;59.30
22098;DHT22;11215;51.938;8.464;2023-04-03T04:29:43;5.20;59.30
22098;DHT22;11215;51.938;8.464;2023-04-03T04:32:09;5.20;59.30
22098;DHT22;11215;51.938;8.464;2023-04-03T04:34:35;5.10;59.30
22098;DHT22;11215;51.938;8.464;2023-04-03T04:37:01;5.10;60.00
22098;DHT22;11215;51.938;8.464;2023-04-03T04:39:26;5.10;59.30
22098;DHT22;11215;51.938;8.464;2023-04-03T04:41:52;5.10;59.50
22098;DHT22;11215;51.938;8.464;2023-04-03T04:44:18;5.10;59.50
22098;DHT22;11215;51.938;8.464;2023-04-03T04:46:43;5.00;59.50
22098;DHT22;11215;51.938;8.464;2023-04-03T04:49:09;5.00;59.60
22098;DHT22;11215;51.938;8.464;2023-04-03T04:51:35;5.00;59.60
22098;DHT22;11215;51.938;8.464;2023-04-03T04:54:00;4.90;59.60
22098;DHT22;11215;51.938;8.464;2023-04-03T04:56:26;4.90;59.70
22098;DHT22;11215;51.938;8.464;2023-04-03T04:58:52;4.90;59.70
22098;DHT22;11215;51.938;8.464;2023-04-03T05:01:17;4.90;60.50
22098;DHT22;11215;51.938;8.464;2023-04-03T05:03:43;4.90;59.80
22098;DHT22;11215;51.938;8.464;2023-04-03T05:06:09;4.90;59.80
22098;DHT22;11215;51.938;8.464;2023-04-03T05:08:35;4.90;59.80
22098;DHT22;11215;51.938;8.464;2023-04-03T05:11:01;4.90;59.90
22098;DHT22;11215;51.938;8.464;2023-04-03T05:13:26;4.90;60.00
22098;DHT22;11215;51.938;8.464;2023-04-03T05:15:52;4.90;60.10
22098;DHT22;11215;51.938;8.464;2023-04-03T05:18:18;4.80;60.00
22098;DHT22;11215;51.938;8.464;2023-04-03T05:20:43;4.90;60.20
22098;DHT22;11215;51.938;8.464;2023-04-03T05:23:10;4.80;60.00
22098;DHT22;11215;51.938;8.464;2023-04-03T05:25:38;4.80;60.00
22098;DHT22;11215;51.938;8.464;2023-04-03T05:28:04;4.80;60.20
22098;DHT22;11215;51.938;8.464;2023-04-03T05:30:30;4.80;60.90
22098;DHT22;11215;51.938;8.464;2023-04-03T05:32:55;4.80;60.10
22098;DHT22;11215;51.938;8.464;2023-04-03T05:35:21;4.80;60.20
22098;DHT22;11215;51.938;8.464;2023-04-03T05:37:47;4.80;60.30
22098;DHT22;11215;51.938;8.464;2023-04-03T05:40:13;4.80;60.30
22098;DHT22;11215;51.938;8.464;2023-04-03T05:42:38;4.70;60.20
22098;DHT22;11215;51.938;8.464;2023-04-03T05:45:04;4.80;60.50
22098;DHT22;11215;51.938;8.464;2023-04-03T05:47:30;4.70;60.50
22098;DHT22;11215;51.938;8.464;2023-04-03T05:49:56;4.70;60.70
22098;DHT22;11215;51.938;8.464;2023-04-03T05:52:26;4.70;60.70
22098;DHT22;11215;51.938;8.464;2023-04-03T05:54:52;4.70;60.70
22098;DHT22;11215;51.938;8.464;2023-04-03T05:57:18;4.80;60.70
22098;DHT22;11215;51.938;8.464;2023-04-03T05:59:45;4.80;60.70
22098;DHT22;11215;51.938;8.464;2023-04-03T06:02:19;4.80;60.80
22098;DHT22;11215;51.938;8.464;2023-04-03T06:04:48;4.80;60.80
22098;DHT22;11215;51.938;8.464;2023-04-03T06:07:16;4.80;60.70
22098;DHT22;11215;51.938;8.464;2023-04-03T06:09:43;4.80;60.70
22098;DHT22;11215;51.938;8.464;2023-04-03T06:12:09;4.90;60.80
22098;DHT22;11215;51.938;8.464;2023-04-03T06:14:35;4.90;61.10
22098;DHT22;11215;51.938;8.464;2023-04-03T06:17:01;4.90;61.50
22098;DHT22;11215;51.938;8.464;2023-04-03T06:19:28;5.00;61.90
22098;DHT22;11215;51.938;8.464;2023-04-03T06:21:53;5.10;62.00
22098;DHT22;11215;51.938;8.464;2023-04-03T06:24:19;5.20;62.00
22098;DHT22;11215;51.938;8.464;2023-04-03T06:26:47;5.40;62.00
22098;DHT22;11215;51.938;8.464;2023-04-03T06:29:14;5.50;62.00
22098;DHT22;11215;51.938;8.464;2023-04-03T06:31:39;5.60;61.70
22098;DHT22;11215;51.938;8.464;2023-04-03T06:34:05;5.70;61.20
22098;DHT22;11215;51.938;8.464;2023-04-03T06:36:32;5.80;60.60
22098;DHT22;11215;51.938;8.464;2023-04-03T06:38:58;5.90;60.10
22098;DHT22;11215;51.938;8.464;2023-04-03T06:41:24;6.00;59.90
22098;DHT22;11215;51.938;8.464;2023-04-03T06:43:51;6.00;59.80
22098;DHT22;11215;51.938;8.464;2023-04-03T06:46:20;6.00;59.90
22098;DHT22;11215;51.938;8.464;2023-04-03T06:48:47;6.10;60.10
22098;DHT22;11215;51.938;8.464;2023-04-03T06:51:26;6.10;60.10
22098;DHT22;11215;51.938;8.464;2023-04-03T06:53:54;6.20;60.00
22098;DHT22;11215;51.938;8.464;2023-04-03T06:56:21;6.30;60.00
22098;DHT22;11215;51.938;8.464;2023-04-03T06:58:47;6.40;60.00
22098;DHT22;11215;51.938;8.464;2023-04-03T07:01:15;6.50;60.00
22098;DHT22;11215;51.938;8.464;2023-04-03T07:03:42;6.60;59.90
22098;DHT22;11215;51.938;8.464;2023-04-03T07:06:11;6.70;59.80
22098;DHT22;11215;51.938;8.464;2023-04-03T07:08:36;6.80;59.50
22098;DHT22;11215;51.938;8.464;2023-04-03T07:11:04;6.90;59.40
22098;DHT22;11215;51.938;8.464;2023-04-03T07:13:30;7.00;59.00
22098;DHT22;11215;51.938;8.464;2023-04-03T07:15:56;7.10;59.20
22098;DHT22;11215;51.938;8.464;2023-04-03T07:18:22;7.20;59.10
22098;DHT22;11215;51.938;8.464;2023-04-03T07:20:48;7.30;58.90
22098;DHT22;11215;51.938;8.464;2023-04-03T07:23:13;7.40;58.50
22098;DHT22;11215;51.938;8.464;2023-04-03T07:25:47;7.50;58.60
22098;DHT22;11215;51.938;8.464;2023-04-03T07:28:13;7.60;58.20
22098;DHT22;11215;51.938;8.464;2023-04-03T07:30:51;7.70;58.90
22098;DHT22;11215;51.938;8.464;2023-04-03T07:33:18;7.80;58.50
22098;DHT22;11215;51.938;8.464;2023-04-03T07:35:45;8.00;59.10
22098;DHT22;11215;51.938;8.464;2023-04-03T07:38:12;8.20;59.10
22098;DHT22;11215;51.938;8.464;2023-04-03T07:40:38;8.40;58.60
22098;DHT22;11215;51.938;8.464;2023-04-03T07:43:04;8.60;58.00
22098;DHT22;11215;51.938;8.464;2023-04-03T07:45:31;8.80;57.70
22098;DHT22;11215;51.938;8.464;2023-04-03T07:47:57;8.90;57.30
22098;DHT22;11215;51.938;8.464;2023-04-03T07:50:23;9.00;56.70
22098;DHT22;11215;51.938;8.464;2023-04-03T07:52:49;9.10;56.10
22098;DHT22;11215;51.938;8.464;2023-04-03T07:55:16;9.20;55.90
22098;DHT22;11215;51.938;8.464;2023-04-03T07:57:42;9.20;55.50
22098;DHT22;11215;51.938;8.464;2023-04-03T08:00:08;9.30;55.10
22098;DHT22;11215;51.938;8.464;2023-04-03T08:02:34;9.30;54.60
22098;DHT22;11215;51.938;8.464;2023-04-03T08:05:00;9.30;54.30
22098;DHT22;11215;51.938;8.464;2023-04-03T08:07:25;9.30;53.90
22098;DHT22;11215;51.938;8.464;2023-04-03T08:09:52;9.20;53.70
22098;DHT22;11215;51.938;8.464;2023-04-03T08:12:18;9.20;53.30
22098;DHT22;11215;51.938;8.464;2023-04-03T08:14:43;9.20;53.10
22098;DHT22;11215;51.938;8.464;2023-04-03T08:17:10;9.20;53.30
22098;DHT22;11215;51.938;8.464;2023-04-03T08:19:38;9.20;53.00
22098;DHT22;11215;51.938;8.464;2023-04-03T08:22:04;9.20;52.70
22098;DHT22;11215;51.938;8.464;2023-04-03T08:24:31;9.20;52.60
22098;DHT22;11215;51.938;8.464;2023-04-03T08:26:57;9.20;52.30
22098;DHT22;11215;51.938;8.464;2023-04-03T08:29:23;9.20;52.20
22098;DHT22;11215;51.938;8.464;2023-04-03T08:31:49;9.10;52.10
22098;DHT22;11215;51.938;8.464;2023-04-03T08:34:16;9.10;52.10
22098;DHT22;11215;51.938;8.464;2023-04-03T08:36:43;9.10;51.90
22098;DHT22;11215;51.938;8.464;2023-04-03T08:39:09;9.10;51.90
22098;DHT22;11215;51.938;8.464;2023-04-03T08:41:39;9.10;52.00
22098;DHT22;11215;51.938;8.464;2023-04-03T08:49:55;9.10;52.70
22098;DHT22;11215;51.938;8.464;2023-04-03T08:52:44;9.10;51.70
22098;DHT22;11215;51.938;8.464;2023-04-03T08:58:02;9.10;51.60
22098;DHT22;11215;51.938;8.464;2023-04-03T09:00:46;9.00;51.90
22098;DHT22;11215;51.938;8.464;2023-04-03T09:03:15;9.10;52.30
22098;DHT22;11215;51.938;8.464;2023-04-03T09:05:48;9.00;52.50
22098;DHT22;11215;51.938;8.464;2023-04-03T09:08:26;9.10;52.70
22098;DHT22;11215;51.938;8.464;2023-04-03T09:11:02;9.10;52.20
22098;DHT22;11215;51.938;8.464;2023-04-03T09:13:47;9.10;51.90
22098;DHT22;11215;51.938;8.464;2023-04-03T09:16:43;9.10;52.10
22098;DHT22;11215;51.938;8.464;2023-04-03T09:19:18;9.10;51.20
22098;DHT22;11215;51.938;8.464;2023-04-03T09:21:46;9.10;52.40
22098;DHT22;11215;51.938;8.464;2023-04-03T09:24:14;9.10;52.40
22098;DHT22;11215;51.938;8.464;2023-04-03T09:26:53;9.10;52.40
22098;DHT22;11215;51.938;8.464;2023-04-03T09:29:22;9.20;51.70
22098;DHT22;11215;51.938;8.464;2023-04-03T09:31:52;9.20;52.00
22098;DHT22;11215;51.938;8.464;2023-04-03T09:34:28;9.20;52.20
22098;DHT22;11215;51.938;8.464;2023-04-03T09:36:57;9.30;51.70
22098;DHT22;11215;51.938;8.464;2023-04-03T09:39:30;9.30;51.80
22098;DHT22;11215;51.938;8.464;2023-04-03T09:44:54;9.30;51.70
22098;DHT22;11215;51.938;8.464;2023-04-03T09:47:28;9.40;51.40
22098;DHT22;11215;51.938;8.464;2023-04-03T09:52:44;9.50;51.30
22098;DHT22;11215;51.938;8.464;2023-04-03T09:55:25;9.50;51.10
22098;DHT22;11215;51.938;8.464;2023-04-03T09:57:58;9.60;50.00
22098;DHT22;11215;51.938;8.464;2023-04-03T10:02:56;9.60;50.20
22098;DHT22;11215;51.938;8.464;2023-04-03T10:05:35;9.60;50.20
22098;DHT22;11215;51.938;8.464;2023-04-03T10:13:32;9.70;50.20
22098;DHT22;11215;51.938;8.464;2023-04-03T10:16:13;9.80;50.90
22098;DHT22;11215;51.938;8.464;2023-04-03T10:18:52;9.80;50.20
22098;DHT22;11215;51.938;8.464;2023-04-03T10:21:40;9.80;50.80
22098;DHT22;11215;51.938;8.464;2023-04-03T10:27:22;10.00;50.10
22098;DHT22;11215;51.938;8.464;2023-04-03T10:32:38;10.10;50.20
22098;DHT22;11215;51.938;8.464;2023-04-03T10:38:24;10.10;49.90
22098;DHT22;11215;51.938;8.464;2023-04-03T10:41:07;10.20;49.90
22098;DHT22;11215;51.938;8.464;2023-04-03T10:43:44;10.20;48.70
22098;DHT22;11215;51.938;8.464;2023-04-03T10:46:38;10.20;49.10
22098;DHT22;11215;51.938;8.464;2023-04-03T10:49:31;10.10;48.00
22098;DHT22;11215;51.938;8.464;2023-04-03T10:57:46;10.00;48.20
22098;DHT22;11215;51.938;8.464;2023-04-03T11:00:21;10.00;49.00
22098;DHT22;11215;51.938;8.464;2023-04-03T11:02:55;10.00;48.70
22098;DHT22;11215;51.938;8.464;2023-04-03T11:05:45;10.00;49.00
22098;DHT22;11215;51.938;8.464;2023-04-03T11:08:19;10.10;49.10
22098;DHT22;11215;51.938;8.464;2023-04-03T11:10:50;10.10;49.30
22098;DHT22;11215;51.938;8.464;2023-04-03T11:15:58;10.30;49.20
22098;DHT22;11215;51.938;8.464;2023-04-03T11:18:29;10.40;49.20
22098;DHT22;11215;51.938;8.464;2023-04-03T11:21:06;10.40;50.00
22098;DHT22;11215;51.938;8.464;2023-04-03T11:23:35;10.50;48.80
22098;DHT22;11215;51.938;8.464;2023-04-03T11:26:18;10.50;48.80
22098;DHT22;11215;51.938;8.464;2023-04-03T11:28:44;10.60;48.40
22098;DHT22;11215;51.938;8.464;2023-04-03T11:37:02;10.50;48.10
22098;DHT22;11215;51.938;8.464;2023-04-03T11:39:33;10.50;47.50
22098;DHT22;11215;51.938;8.464;2023-04-03T11:42:25;10.50;48.10
22098;DHT22;11215;51.938;8.464;2023-04-03T11:48:01;10.40;48.20
22098;DHT22;11215;51.938;8.464;2023-04-03T12:19:02;10.70;48.10
22098;DHT22;11215;51.938;8.464;2023-04-03T12:29:41;10.80;48.10
22098;DHT22;11215;51.938;8.464;2023-04-03T12:32:36;10.80;47.60
22098;DHT22;11215;51.938;8.464;2023-04-03T12:37:54;10.90;48.00
22098;DHT22;11215;51.938;8.464;2023-04-03T12:45:51;11.00;47.40
22098;DHT22;11215;51.938;8.464;2023-04-03T12:48:25;11.00;47.50
22098;DHT22;11215;51.938;8.464;2023-04-03T12:50:52;11.10;47.60
22098;DHT22;11215;51.938;8.464;2023-04-03T12:53:33;11.10;48.10
22098;DHT22;11215;51.938;8.464;2023-04-03T12:58:44;11.20;47.10
22098;DHT22;11215;51.938;8.464;2023-04-03T13:01:15;11.30;47.90
22098;DHT22;11215;51.938;8.464;2023-04-03T13:03:48;11.40;47.60
22098;DHT22;11215;51.938;8.464;2023-04-03T13:06:26;11.50;47.40
22098;DHT22;11215;51.938;8.464;2023-04-03T13:08:57;11.50;46.90
22098;DHT22;11215;51.938;8.464;2023-04-03T13:11:27;11.60;47.30
22098;DHT22;11215;51.938;8.464;2023-04-03T13:14:01;11.60;47.00
22098;DHT22;11215;51.938;8.464;2023-04-03T13:16:29;11.60;46.40
22098;DHT22;11215;51.938;8.464;2023-04-03T13:18:55;11.70;46.90
22098;DHT22;11215;51.938;8.464;2023-04-03T13:21:32;11.70;46.80
22098;DHT22;11215;51.938;8.464;2023-04-03T13:24:01;11.80;46.90
22098;DHT22;11215;51.938;8.464;2023-04-03T13:26:32;11.80;46.50
22098;DHT22;11215;51.938;8.464;2023-04-03T13:29:27;11.80;46.70
22098;DHT22;11215;51.938;8.464;2023-04-03T13:31:55;11.80;46.10
22098;DHT22;11215;51.938;8.464;2023-04-03T13:34:23;11.80;46.30
22098;DHT22;11215;51.938;8.464;2023-04-03T13:41:56;11.80;46.20
22098;DHT22;11215;51.938;8.464;2023-04-03T13:47:14;11.80;46.20
22098;DHT22;11215;51.938;8.464;2023-04-03T13:50:20;11.80;45.70
22098;DHT22;11215;51.938;8.464;2023-04-03T13:52:52;11.80;46.30
22098;DHT22;11215;51.938;8.464;2023-04-03T13:55:23;11.90;46.70
22098;DHT22;11215;51.938;8.464;2023-04-03T13:57:58;12.00;46.00
22098;DHT22;11215;51.938;8.464;2023-04-03T14:00:39;12.00;45.80
22098;DHT22;11215;51.938;8.464;2023-04-03T14:03:25;12.10;45.60
22098;DHT22;11215;51.938;8.464;2023-04-03T14:05:52;12.10;45.40
22098;DHT22;11215;51.938;8.464;2023-04-03T14:08:18;12.10;45.90
22098;DHT22;11215;51.938;8.464;2023-04-03T14:10:44;12.10;45.70
22098;DHT22;11215;51.938;8.464;2023-04-03T14:13:14;12.10;45.50
22098;DHT22;11215;51.938;8.464;2023-04-03T14:15:40;12.10;45.00
22098;DHT22;11215;51.938;8.464;2023-04-03T14:18:06;12.10;45.20
22098;DHT22;11215;51.938;8.464;2023-04-03T14:20:31;12.00;45.10
22098;DHT22;11215;51.938;8.464;2023-04-03T14:22:57;12.00;45.30
22098;DHT22;11215;51.938;8.464;2023-04-03T14:25:24;12.00;45.20
22098;DHT22;11215;51.938;8.464;2023-04-03T14:27:54;12.00;45.10
22098;DHT22;11215;51.938;8.464;2023-04-03T14:30:26;12.00;45.00
22098;DHT22;11215;51.938;8.464;2023-04-03T14:32:52;12.00;44.80
22098;DHT22;11215;51.938;8.464;2023-04-03T14:35:19;12.00;45.10
22098;DHT22;11215;51.938;8.464;2023-04-03T14:37:46;12.00;45.10
22098;DHT22;11215;51.938;8.464;2023-04-03T14:40:19;12.00;44.90
22098;DHT22;11215;51.938;8.464;2023-04-03T14:42:45;12.00;44.30
22098;DHT22;11215;51.938;8.464;2023-04-03T14:45:12;12.00;45.00
22098;DHT22;11215;51.938;8.464;2023-04-03T14:47:55;12.00;45.10
22098;DHT22;11215;51.938;8.464;2023-04-03T14:50:26;11.90;44.20
22098;DHT22;11215;51.938;8.464;2023-04-03T14:52:55;12.00;44.60
22098;DHT22;11215;51.938;8.464;2023-04-03T14:55:23;12.00;44.70
22098;DHT22;11215;51.938;8.464;2023-04-03T14:57:49;12.00;44.80
22098;DHT22;11215;51.938;8.464;2023-04-03T15:00:21;12.00;45.00
22098;DHT22;11215;51.938;8.464;2023-04-03T15:02:47;12.00;44.50
22098;DHT22;11215;51.938;8.464;2023-04-03T15:05:14;12.00;45.10
22098;DHT22;11215;51.938;8.464;2023-04-03T15:07:48;12.00;45.00
22098;DHT22;11215;51.938;8.464;2023-04-03T15:10:19;12.10;44.80
22098;DHT22;11215;51.938;8.464;2023-04-03T15:12:46;12.10;44.90
22098;DHT22;11215;51.938;8.464;2023-04-03T15:15:13;12.20;44.70
22098;DHT22;11215;51.938;8.464;2023-04-03T15:17:40;12.20;44.80
22098;DHT22;11215;51.938;8.464;2023-04-03T15:20:15;12.20;44.60
22098;DHT22;11215;51.938;8.464;2023-04-03T15:22:41;12.30;44.10
22098;DHT22;11215;51.938;8.464;2023-04-03T15:25:08;12.30;44.30
22098;DHT22;11215;51.938;8.464;2023-04-03T15:27:34;12.30;44.00
22098;DHT22;11215;51.938;8.464;2023-04-03T15:30:00;12.30;44.00
22098;DHT22;11215;51.938;8.464;2023-04-03T15:32:26;12.40;44.80
22098;DHT22;11215;51.938;8.464;2023-04-03T15:34:51;12.40;44.10
22098;DHT22;11215;51.938;8.464;2023-04-03T15:37:18;12.40;44.00
22098;DHT22;11215;51.938;8.464;2023-04-03T15:39:44;12.40;43.90
22098;DHT22;11215;51.938;8.464;2023-04-03T15:42:10;12.40;44.00
22098;DHT22;11215;51.938;8.464;2023-04-03T15:44:37;12.40;43.80
22098;DHT22;11215;51.938;8.464;2023-04-03T15:47:03;12.50;43.60
22098;DHT22;11215;51.938;8.464;2023-04-03T15:49:30;12.40;43.30
22098;DHT22;11215;51.938;8.464;2023-04-03T15:51:57;12.40;43.00
22098;DHT22;11215;51.938;8.464;2023-04-03T15:54:23;12.30;43.00
22098;DHT22;11215;51.938;8.464;2023-04-03T15:56:50;12.30;43.10
22098;DHT22;11215;51.938;8.464;2023-04-03T15:59:15;12.20;43.10
22098;DHT22;11215;51.938;8.464;2023-04-03T16:01:42;12.20;43.20
22098;DHT22;11215;51.938;8.464;2023-04-03T16:04:08;12.10;43.50
22098;DHT22;11215;51.938;8.464;2023-04-03T16:06:35;12.10;43.50
22098;DHT22;11215;51.938;8.464;2023-04-03T16:09:01;12.10;43.60
22098;DHT22;11215;51.938;8.464;2023-04-03T16:11:28;12.10;43.70
22098;DHT22;11215;51.938;8.464;2023-04-03T16:13:54;12.10;43.60
22098;DHT22;11215;51.938;8.464;2023-04-03T16:16:20;12.10;43.50
22098;DHT22;11215;51.938;8.464;2023-04-03T16:18:47;12.10;43.60
22098;DHT22;11215;51.938;8.464;2023-04-03T16:21:13;12.10;43.30
22098;DHT22;11215;51.938;8.464;2023-04-03T16:23:40;12.20;42.90
22098;DHT22;11215;51.938;8.464;2023-04-03T16:26:06;12.20;43.00
22098;DHT22;11215;51.938;8.464;2023-04-03T16:28:32;12.10;42.80
22098;DHT22;11215;51.938;8.464;2023-04-03T16:30:58;12.10;42.90
22098;DHT22;11215;51.938;8.464;2023-04-03T16:33:26;12.10;43.10
22098;DHT22;11215;51.938;8.464;2023-04-03T16:35:51;12.10;43.10
22098;DHT22;11215;51.938;8.464;2023-04-03T16:38:17;12.10;43.20
22098;DHT22;11215;51.938;8.464;2023-04-03T16:40:45;12.10;43.20
22098;DHT22;11215;51.938;8.464;2023-04-03T16:43:11;12.20;43.20
22098;DHT22;11215;51.938;8.464;2023-04-03T16:45:36;12.20;43.30
22098;DHT22;11215;51.938;8.464;2023-04-03T16:48:03;12.20;43.30
22098;DHT22;11215;51.938;8.464;2023-04-03T16:50:28;12.20;43.20
22098;DHT22;11215;51.938;8.464;2023-04-03T16:52:54;12.20;43.20
22098;DHT22;11215;51.938;8.464;2023-04-03T16:55:20;12.20;43.10
22098;DHT22;11215;51.938;8.464;2023-04-03T16:57:46;12.20;42.90
22098;DHT22;11215;51.938;8.464;2023-04-03T17:00:13;12.20;42.70
22098;DHT22;11215;51.938;8.464;2023-04-03T17:02:39;12.20;42.50
22098;DHT22;11215;51.938;8.464;2023-04-03T17:05:06;12.20;42.70
22098;DHT22;11215;51.938;8.464;2023-04-03T17:07:31;12.20;42.60
22098;DHT22;11215;51.938;8.464;2023-04-03T17:10:00;12.20;42.70
22098;DHT22;11215;51.938;8.464;2023-04-03T17:12:25;12.20;42.60
22098;DHT22;11215;51.938;8.464;2023-04-03T17:15:00;12.20;42.70
22098;DHT22;11215;51.938;8.464;2023-04-03T17:17:26;12.20;42.90
22098;DHT22;11215;51.938;8.464;2023-04-03T17:19:52;12.20;43.00
22098;DHT22;11215;51.938;8.464;2023-04-03T17:22:19;12.30;42.80
22098;DHT22;11215;51.938;8.464;2023-04-03T17:24:45;12.40;42.70
22098;DHT22;11215;51.938;8.464;2023-04-03T17:27:11;12.50;42.70
22098;DHT22;11215;51.938;8.464;2023-04-03T17:29:39;12.60;42.60
22098;DHT22;11215;51.938;8.464;2023-04-03T17:32:05;12.80;42.50
22098;DHT22;11215;51.938;8.464;2023-04-03T17:34:31;12.80;42.20
22098;DHT22;11215;51.938;8.464;2023-04-03T17:36:58;12.90;42.00
22098;DHT22;11215;51.938;8.464;2023-04-03T17:39:23;13.00;41.80